Time;durP1;ratioP1;P1;durP2;ratioP2;P2;SDS_P1;SDS_P2;PMS_P1;PMS_P2;Temp;Humidity;BMP_temperature;BMP_pressure;BME280_temperature;BME280_humidity;BME280_pressure;Samples;Min_cycle;Max_cycle;Signal;HPM_P1;HPM_P2
2023/10/03 00:02:54;;;;;;;7.78;3.60;;;;;;;;;;6207706;28;20292;-70
2023/10/03 00:06:00;;;;;;;6.57;4.00;;;;;;;;;;6208436;28;20297;-70
2023/10/03 00:09:06;;;;;;;6.80;3.53;;;;;;;;;;6208038;28;20313;-70
2023/10/03 00:12:10;;;;;;;5.35;3.75;;;;;;;;;;6208106;28;20297;-69
2023/10/03 00:15:15;;;;;;;7.28;3.47;;;;;;;;;;6207739;28;20312;-69
2023/10/03 00:18:19;;;;;;;4.78;3.60;;;;;;;;;;6207670;28;20297;-68
2023/10/03 00:21:24;;;;;;;5.75;3.78;;;;;;;;;;6208071;28;20292;-70
2023/10/03 00:24:28;;;;;;;6.10;3.35;;;;;;;;;;6206664;28;20296;-70
2023/10/03 00:27:35;;;;;;;9.77;3.63;;;;;;;;;;6208076;28;20293;-71
2023/10/03 00:30:39;;;;;;;4.43;3.50;;;;;;;;;;6204928;28;20304;-70
2023/10/03 00:33:45;;;;;;;10.25;3.97;;;;;;;;;;6207325;28;20325;-70
2023/10/03 00:36:52;;;;;;;4.15;3.58;;;;;;;;;;6235457;28;20295;-70
2023/10/03 00:39:59;;;;;;;4.65;3.42;;;;;;;;;;6237197;28;20571;-70
2023/10/03 00:43:04;;;;;;;5.13;3.53;;;;;;;;;;6254958;28;20301;-69
2023/10/03 00:46:08;;;;;;;4.10;3.28;;;;;;;;;;6256647;28;20300;-69
2023/10/03 00:49:14;;;;;;;8.40;3.83;;;;;;;;;;6254542;28;20292;-70
2023/10/03 00:52:20;;;;;;;8.10;3.50;;;;;;;;;;6254898;28;20296;-70
2023/10/03 00:55:26;;;;;;;4.47;3.40;;;;;;;;;;6256101;28;20580;-70
2023/10/03 00:58:30;;;;;;;6.45;3.65;;;;;;;;;;6256137;28;20303;-69
2023/10/03 01:01:35;;;;;;;3.58;3.35;;;;;;;;;;6254459;28;20291;-69
2023/10/03 01:04:40;;;;;;;3.35;3.15;;;;;;;;;;6255989;28;20299;-69
2023/10/03 01:07:49;;;;;;;4.85;3.95;;;;;;;;;;6233050;28;20292;-70
2023/10/03 01:10:54;;;;;;;6.13;3.75;;;;;;;;;;6229767;28;20581;-70
2023/10/03 01:14:00;;;;;;;6.22;3.60;;;;;;;;;;6255668;28;20315;-69
2023/10/03 01:17:06;;;;;;;10.63;3.40;;;;;;;;;;6253870;28;20588;-69
2023/10/03 01:20:16;;;;;;;8.57;3.35;;;;;;;;;;6255393;28;20303;-69
2023/10/03 01:23:22;;;;;;;7.82;4.03;;;;;;;;;;6265420;28;20280;-69
2023/10/03 01:26:26;;;;;;;8.20;4.10;;;;;;;;;;6244441;28;20284;-69
2023/10/03 01:29:30;;;;;;;5.50;3.85;;;;;;;;;;6255426;28;20635;-70
2023/10/03 01:32:36;;;;;;;5.70;3.97;;;;;;;;;;6253621;28;20299;-69
2023/10/03 01:35:40;;;;;;;8.50;3.47;;;;;;;;;;6255376;28;20351;-69
2023/10/03 01:38:45;;;;;;;9.07;4.00;;;;;;;;;;6255235;28;20310;-69
2023/10/03 01:41:49;;;;;;;6.00;3.35;;;;;;;;;;6253589;28;20300;-69
2023/10/03 01:44:53;;;;;;;4.13;3.60;;;;;;;;;;6254886;28;20590;-71
2023/10/03 01:47:58;;;;;;;8.63;3.72;;;;;;;;;;6254685;28;20299;-69
2023/10/03 01:51:03;;;;;;;4.80;3.15;;;;;;;;;;6269989;28;20300;-69
2023/10/03 01:54:09;;;;;;;8.70;3.50;;;;;;;;;;6253082;28;20299;-69
2023/10/03 01:57:13;;;;;;;8.18;4.10;;;;;;;;;;6253332;28;20303;-69
2023/10/03 02:00:26;;;;;;;3.95;3.58;;;;;;;;;;6269737;28;20311;-70
2023/10/03 02:03:29;;;;;;;6.32;3.92;;;;;;;;;;6254962;28;20295;-71
2023/10/03 02:06:34;;;;;;;6.70;4.20;;;;;;;;;;6270230;28;20340;-70
2023/10/03 02:09:39;;;;;;;4.20;3.80;;;;;;;;;;6253869;28;20488;-70
2023/10/03 02:12:48;;;;;;;5.93;3.70;;;;;;;;;;6252628;28;20303;-69
2023/10/03 02:15:53;;;;;;;7.00;3.72;;;;;;;;;;6255176;28;20272;-68
2023/10/03 02:18:57;;;;;;;8.63;3.75;;;;;;;;;;6252870;28;20307;-69
2023/10/03 02:22:01;;;;;;;5.20;3.72;;;;;;;;;;6255247;28;20291;-69
2023/10/03 02:25:08;;;;;;;9.05;3.90;;;;;;;;;;6254568;28;20330;-68
2023/10/03 02:28:15;;;;;;;4.55;3.63;;;;;;;;;;6254282;28;20307;-70
2023/10/03 02:31:20;;;;;;;4.57;4.20;;;;;;;;;;6254954;28;20288;-69
2023/10/03 02:34:24;;;;;;;4.53;4.03;;;;;;;;;;6254476;28;20300;-68
2023/10/03 02:37:28;;;;;;;8.60;4.18;;;;;;;;;;6252550;28;20316;-70
2023/10/03 02:40:35;;;;;;;3.80;3.50;;;;;;;;;;6250296;28;20315;-70
2023/10/03 02:43:42;;;;;;;5.25;4.18;;;;;;;;;;6252684;28;20557;-69
2023/10/03 02:46:55;;;;;;;14.10;4.43;;;;;;;;;;6255186;28;20284;-68
2023/10/03 02:49:59;;;;;;;7.63;4.05;;;;;;;;;;6258908;28;20299;-70
2023/10/03 02:53:07;;;;;;;11.27;4.47;;;;;;;;;;6256466;28;20379;-69
2023/10/03 02:56:14;;;;;;;6.03;3.83;;;;;;;;;;6273986;28;20283;-70
2023/10/03 02:59:20;;;;;;;9.45;3.92;;;;;;;;;;6256587;28;20343;-70
2023/10/03 03:02:25;;;;;;;9.18;4.35;;;;;;;;;;6256450;28;20292;-70
2023/10/03 03:05:35;;;;;;;7.22;3.85;;;;;;;;;;6274385;28;20299;-69
2023/10/03 03:08:43;;;;;;;15.95;4.35;;;;;;;;;;6265273;28;20312;-72
2023/10/03 03:11:52;;;;;;;4.82;4.03;;;;;;;;;;6273075;28;20293;-71
2023/10/03 03:14:57;;;;;;;9.50;4.57;;;;;;;;;;6258274;28;20612;-70
2023/10/03 03:18:01;;;;;;;7.07;4.03;;;;;;;;;;6258339;28;20303;-69
2023/10/03 03:21:08;;;;;;;5.20;3.83;;;;;;;;;;6257991;28;20322;-72
2023/10/03 03:24:21;;;;;;;5.70;4.20;;;;;;;;;;6257847;28;20300;-70
2023/10/03 03:27:26;;;;;;;6.95;4.30;;;;;;;;;;6258381;28;20598;-70
2023/10/03 03:30:36;;;;;;;9.32;4.20;;;;;;;;;;6257827;28;20296;-69
2023/10/03 03:33:40;;;;;;;6.60;3.95;;;;;;;;;;6271539;28;20590;-69
2023/10/03 03:36:46;;;;;;;7.25;3.78;;;;;;;;;;6257678;28;20295;-70
2023/10/03 03:39:54;;;;;;;9.18;4.00;;;;;;;;;;6255336;28;20238;-70
2023/10/03 03:43:00;;;;;;;8.77;4.70;;;;;;;;;;6257986;28;20307;-70
2023/10/03 03:46:08;;;;;;;5.47;4.28;;;;;;;;;;6257232;28;20483;-71
2023/10/03 03:49:12;;;;;;;6.88;4.47;;;;;;;;;;6257106;28;20438;-69
2023/10/03 03:52:16;;;;;;;11.23;4.28;;;;;;;;;;6257601;28;20570;-69
2023/10/03 03:55:22;;;;;;;8.20;4.47;;;;;;;;;;6257250;28;20384;-69
2023/10/03 03:58:27;;;;;;;8.25;4.07;;;;;;;;;;6256073;28;20311;-70
2023/10/03 04:01:33;;;;;;;8.38;4.70;;;;;;;;;;6257343;28;20239;-69
2023/10/03 04:04:37;;;;;;;12.50;3.97;;;;;;;;;;6257119;28;20299;-71
2023/10/03 04:07:41;;;;;;;9.73;4.60;;;;;;;;;;6257704;28;20287;-69
2023/10/03 04:10:45;;;;;;;7.43;4.63;;;;;;;;;;6256677;28;20287;-69
2023/10/03 04:13:53;;;;;;;6.10;4.60;;;;;;;;;;6256468;28;20354;-69
2023/10/03 04:16:57;;;;;;;8.65;4.63;;;;;;;;;;6257105;28;20587;-69
2023/10/03 04:20:02;;;;;;;7.93;4.43;;;;;;;;;;6256389;28;20299;-70
2023/10/03 04:23:07;;;;;;;6.72;4.38;;;;;;;;;;6256887;28;20623;-69
2023/10/03 04:26:11;;;;;;;6.45;4.28;;;;;;;;;;6256119;28;20307;-70
2023/10/03 04:29:16;;;;;;;14.75;4.43;;;;;;;;;;6256294;28;20640;-70
2023/10/03 04:32:20;;;;;;;9.05;4.35;;;;;;;;;;6256644;28;20404;-71
2023/10/03 04:35:25;;;;;;;10.10;4.60;;;;;;;;;;6256402;28;20319;-69
2023/10/03 04:38:29;;;;;;;6.32;4.25;;;;;;;;;;6256206;28;20483;-69
2023/10/03 04:41:33;;;;;;;8.50;4.03;;;;;;;;;;6254821;28;20436;-68
2023/10/03 04:44:38;;;;;;;6.15;3.97;;;;;;;;;;6256145;28;20291;-69
2023/10/03 04:47:43;;;;;;;9.75;4.68;;;;;;;;;;6256690;28;20295;-69
2023/10/03 04:50:47;;;;;;;12.85;5.00;;;;;;;;;;6256241;28;20287;-71
2023/10/03 04:53:51;;;;;;;8.07;4.22;;;;;;;;;;6256202;28;20459;-69
2023/10/03 04:56:55;;;;;;;9.80;4.68;;;;;;;;;;6256239;28;20303;-69
2023/10/03 05:00:00;;;;;;;10.43;4.28;;;;;;;;;;6255701;28;20303;-69
2023/10/03 05:03:09;;;;;;;9.35;4.68;;;;;;;;;;6256185;28;20592;-70
2023/10/03 05:06:13;;;;;;;7.50;4.45;;;;;;;;;;6255556;28;20304;-70
2023/10/03 05:09:17;;;;;;;11.50;4.60;;;;;;;;;;6255280;28;20373;-70
2023/10/03 05:12:24;;;;;;;6.38;4.55;;;;;;;;;;6255817;28;20296;-70
2023/10/03 05:15:30;;;;;;;13.40;4.90;;;;;;;;;;6255937;28;20299;-70
2023/10/03 05:18:34;;;;;;;9.07;4.75;;;;;;;;;;6255931;28;20292;-69
2023/10/03 05:21:38;;;;;;;10.48;4.93;;;;;;;;;;6255873;28;20299;-70
2023/10/03 05:24:42;;;;;;;11.05;5.32;;;;;;;;;;6255620;28;20307;-71
2023/10/03 05:27:48;;;;;;;9.57;5.07;;;;;;;;;;6255847;28;20260;-70
2023/10/03 05:30:54;;;;;;;10.73;4.80;;;;;;;;;;6255078;28;20342;-71
2023/10/03 05:33:58;;;;;;;6.95;4.55;;;;;;;;;;6254805;28;20304;-70
2023/10/03 05:37:02;;;;;;;11.52;4.68;;;;;;;;;;6255173;28;20295;-70
2023/10/03 05:40:12;;;;;;;9.05;4.78;;;;;;;;;;6253068;28;20582;-71
2023/10/03 05:43:17;;;;;;;10.07;4.75;;;;;;;;;;6255585;28;20323;-70
2023/10/03 05:46:23;;;;;;;12.30;5.15;;;;;;;;;;6255014;28;20315;-70
2023/10/03 05:49:27;;;;;;;13.90;5.00;;;;;;;;;;6255140;28;20308;-69
2023/10/03 05:52:31;;;;;;;9.35;5.30;;;;;;;;;;6256176;28;20342;-69
2023/10/03 05:55:36;;;;;;;8.38;4.95;;;;;;;;;;6255075;28;20303;-71
2023/10/03 05:58:40;;;;;;;8.45;5.05;;;;;;;;;;6255069;28;20327;-70
2023/10/03 06:01:45;;;;;;;6.88;4.70;;;;;;;;;;6255771;28;20307;-69
2023/10/03 06:04:50;;;;;;;13.95;5.07;;;;;;;;;;6254800;28;20600;-71
2023/10/03 06:07:54;;;;;;;16.85;5.28;;;;;;;;;;6256021;28;20512;-70
2023/10/03 06:11:00;;;;;;;12.77;5.38;;;;;;;;;;6255652;28;20287;-70
2023/10/03 06:14:04;;;;;;;10.43;5.47;;;;;;;;;;6254748;28;20323;-69
2023/10/03 06:17:09;;;;;;;14.10;5.65;;;;;;;;;;6255195;28;20565;-71
2023/10/03 06:20:14;;;;;;;8.10;4.72;;;;;;;;;;6254691;28;20300;-71
2023/10/03 06:23:19;;;;;;;9.80;5.93;;;;;;;;;;6258893;28;20319;-70
2023/10/03 06:26:22;;;;;;;12.57;5.38;;;;;;;;;;6259801;28;20299;-71
2023/10/03 06:29:26;;;;;;;13.25;5.65;;;;;;;;;;6259388;28;20296;-71
2023/10/03 06:32:32;;;;;;;13.18;6.38;;;;;;;;;;6259935;28;20457;-70
2023/10/03 06:35:35;;;;;;;16.85;7.57;;;;;;;;;;6257300;28;20628;-72
2023/10/03 06:38:41;;;;;;;17.00;6.28;;;;;;;;;;6259202;28;20299;-72
2023/10/03 06:41:46;;;;;;;23.02;6.90;;;;;;;;;;6257448;28;20592;-70
2023/10/03 06:44:51;;;;;;;21.35;7.07;;;;;;;;;;6259054;28;20292;-71
2023/10/03 06:47:56;;;;;;;10.23;6.40;;;;;;;;;;6259435;28;20326;-70
2023/10/03 06:51:05;;;;;;;12.35;5.80;;;;;;;;;;6258775;28;20311;-72
2023/10/03 06:54:09;;;;;;;8.23;5.18;;;;;;;;;;6258895;28;20588;-71
2023/10/03 06:57:13;;;;;;;14.70;4.90;;;;;;;;;;6259284;28;20339;-68
2023/10/03 07:00:21;;;;;;;13.27;5.72;;;;;;;;;;6258527;28;20303;-71
2023/10/03 07:03:27;;;;;;;14.90;6.32;;;;;;;;;;6258446;28;20287;-71
2023/10/03 07:06:33;;;;;;;14.27;5.78;;;;;;;;;;6258929;28;20532;-72
2023/10/03 07:09:38;;;;;;;18.92;6.50;;;;;;;;;;6258499;28;20628;-70
2023/10/03 07:12:42;;;;;;;13.77;6.38;;;;;;;;;;6257794;28;20280;-70
2023/10/03 07:15:46;;;;;;;12.32;6.10;;;;;;;;;;6258156;28;20308;-71
2023/10/03 07:18:51;;;;;;;13.55;6.15;;;;;;;;;;6258003;28;20295;-71
2023/10/03 07:21:55;;;;;;;11.32;6.10;;;;;;;;;;6258622;28;20256;-72
2023/10/03 07:24:59;;;;;;;14.38;6.10;;;;;;;;;;6258062;28;20287;-71
2023/10/03 07:28:04;;;;;;;14.45;5.45;;;;;;;;;;6258247;28;20636;-72
2023/10/03 07:31:09;;;;;;;13.85;5.60;;;;;;;;;;6258087;28;20303;-72
2023/10/03 07:34:18;;;;;;;15.63;5.53;;;;;;;;;;6257832;28;20350;-70
2023/10/03 07:37:22;;;;;;;10.60;6.18;;;;;;;;;;6258053;28;20327;-70
2023/10/03 07:40:27;;;;;;;13.63;6.13;;;;;;;;;;6256046;28;20287;-70
2023/10/03 07:43:31;;;;;;;12.60;5.68;;;;;;;;;;6257659;28;20316;-70
2023/10/03 07:46:35;;;;;;;11.63;5.90;;;;;;;;;;6258300;28;20311;-72
2023/10/03 07:49:42;;;;;;;15.95;5.63;;;;;;;;;;6257438;28;20547;-71
2023/10/03 07:52:48;;;;;;;16.05;5.70;;;;;;;;;;6257938;28;20319;-70
2023/10/03 07:55:55;;;;;;;18.33;5.43;;;;;;;;;;6257489;28;20480;-70
2023/10/03 07:59:01;;;;;;;15.35;5.30;;;;;;;;;;6257204;28;20319;-70
2023/10/03 08:02:10;;;;;;;23.17;5.18;;;;;;;;;;6255942;28;20291;-70
2023/10/03 08:05:16;;;;;;;14.50;5.22;;;;;;;;;;6256995;28;20295;-71
2023/10/03 08:08:22;;;;;;;9.73;5.32;;;;;;;;;;6257085;28;20303;-72
2023/10/03 08:11:28;;;;;;;18.48;6.00;;;;;;;;;;6257444;28;20300;-70
2023/10/03 08:14:35;;;;;;;10.02;4.68;;;;;;;;;;6256912;28;20311;-71
2023/10/03 08:17:39;;;;;;;13.82;4.80;;;;;;;;;;6257176;28;20308;-72
2023/10/03 08:20:45;;;;;;;10.35;4.90;;;;;;;;;;6256748;28;20307;-70
2023/10/03 08:23:51;;;;;;;16.30;5.25;;;;;;;;;;6256662;28;20303;-70
2023/10/03 08:26:59;;;;;;;13.48;4.88;;;;;;;;;;6255235;28;20295;-69
2023/10/03 08:30:04;;;;;;;11.75;4.60;;;;;;;;;;6285774;28;20303;-70
2023/10/03 08:33:08;;;;;;;11.43;4.68;;;;;;;;;;6282210;28;20347;-69
2023/10/03 08:36:15;;;;;;;10.50;4.50;;;;;;;;;;6280834;28;20315;-69
2023/10/03 08:39:19;;;;;;;13.65;4.72;;;;;;;;;;6277219;28;20440;-72
2023/10/03 08:42:34;;;;;;;14.73;4.70;;;;;;;;;;6256795;28;20289;-69
2023/10/03 08:45:40;;;;;;;8.77;4.68;;;;;;;;;;6254947;28;20307;-71
2023/10/03 08:48:45;;;;;;;19.00;4.63;;;;;;;;;;6255882;28;20608;-70
2023/10/03 08:51:51;;;;;;;9.20;4.88;;;;;;;;;;6256668;28;20389;-69
2023/10/03 08:54:55;;;;;;;10.85;4.75;;;;;;;;;;6256052;28;20295;-69
2023/10/03 08:58:00;;;;;;;8.15;4.65;;;;;;;;;;6256608;28;20295;-69
2023/10/03 09:01:04;;;;;;;9.43;4.03;;;;;;;;;;6256315;28;20395;-71
2023/10/03 09:04:15;;;;;;;12.13;4.55;;;;;;;;;;6256010;28;20251;-69
2023/10/03 09:07:23;;;;;;;11.55;4.43;;;;;;;;;;6256994;28;20315;-71
2023/10/03 09:10:29;;;;;;;9.88;4.32;;;;;;;;;;6255864;28;20295;-70
2023/10/03 09:13:32;;;;;;;14.75;4.53;;;;;;;;;;6255617;28;20323;-71
2023/10/03 09:16:38;;;;;;;8.98;4.57;;;;;;;;;;6256053;28;20299;-69
2023/10/03 09:19:44;;;;;;;11.48;4.53;;;;;;;;;;6255676;28;20319;-69
2023/10/03 09:22:52;;;;;;;11.57;4.38;;;;;;;;;;6255984;28;20303;-68
2023/10/03 09:25:56;;;;;;;9.35;4.57;;;;;;;;;;6256409;28;20446;-71
2023/10/03 09:29:07;;;;;;;9.98;4.35;;;;;;;;;;6255498;28;20299;-69
2023/10/03 09:32:14;;;;;;;15.77;4.53;;;;;;;;;;6255784;28;20289;-70
2023/10/03 09:35:18;;;;;;;11.98;4.45;;;;;;;;;;6254956;28;20303;-69
2023/10/03 09:38:42;;;;;;;13.15;5.07;;;;;;;;;;6255490;28;20552;-69
2023/10/03 09:41:46;;;;;;;14.52;4.45;;;;;;;;;;6254012;28;20291;-70
2023/10/03 09:44:51;;;;;;;11.90;3.85;;;;;;;;;;6255146;28;20299;-70
2023/10/03 09:48:05;;;;;;;10.18;4.38;;;;;;;;;;6255837;28;20295;-70
2023/10/03 09:51:13;;;;;;;10.95;4.22;;;;;;;;;;6255837;28;20303;-70
2023/10/03 09:54:24;;;;;;;15.10;4.38;;;;;;;;;;6256069;28;20291;-70
2023/10/03 09:57:29;;;;;;;16.63;4.18;;;;;;;;;;6259245;28;20287;-69
2023/10/03 10:00:50;;;;;;;8.95;4.35;;;;;;;;;;6275494;28;20564;-69
2023/10/03 10:03:59;;;;;;;11.02;4.15;;;;;;;;;;6254690;28;20363;-70
2023/10/03 10:07:16;;;;;;;7.18;4.40;;;;;;;;;;6260553;28;20351;-71
2023/10/03 10:10:22;;;;;;;11.23;4.00;;;;;;;;;;6261049;28;20483;-70
2023/10/03 10:13:27;;;;;;;10.90;3.88;;;;;;;;;;6284968;28;20299;-70
2023/10/03 10:16:31;;;;;;;10.23;4.05;;;;;;;;;;6285190;28;20449;-70
2023/10/03 10:20:08;;;;;;;9.27;4.07;;;;;;;;;;6284926;28;20299;-70
2023/10/03 10:23:17;;;;;;;10.18;4.28;;;;;;;;;;6285731;28;20303;-71
2023/10/03 10:26:31;;;;;;;10.63;4.35;;;;;;;;;;6284401;28;20352;-69
2023/10/03 10:29:57;;;;;;;5.70;4.10;;;;;;;;;;6285079;28;20366;-70
2023/10/03 10:33:25;;;;;;;13.65;4.65;;;;;;;;;;6285623;28;20295;-70
2023/10/03 10:36:56;;;;;;;10.43;4.50;;;;;;;;;;6284408;28;20338;-69
2023/10/03 10:40:17;;;;;;;8.85;4.15;;;;;;;;;;6273797;28;20383;-70
2023/10/03 10:43:24;;;;;;;12.68;5.13;;;;;;;;;;6259663;28;20300;-70
2023/10/03 10:46:35;;;;;;;17.45;4.63;;;;;;;;;;6260188;28;20295;-70
2023/10/03 10:49:57;;;;;;;9.55;4.35;;;;;;;;;;6259268;28;20313;-71
2023/10/03 10:53:21;;;;;;;11.40;4.25;;;;;;;;;;6259039;28;20293;-71
2023/10/03 10:56:28;;;;;;;14.98;4.38;;;;;;;;;;6259469;28;20302;-70
2023/10/03 10:59:35;;;;;;;15.73;4.55;;;;;;;;;;6259144;28;20603;-70
2023/10/03 11:02:43;;;;;;;21.77;4.70;;;;;;;;;;6258830;28;20315;-70
2023/10/03 11:05:49;;;;;;;15.43;4.53;;;;;;;;;;6258731;28;20321;-71
2023/10/03 11:08:53;;;;;;;15.93;4.40;;;;;;;;;;6258021;28;20295;-70
2023/10/03 11:11:57;;;;;;;7.03;3.97;;;;;;;;;;6272878;28;20302;-72
2023/10/03 11:15:05;;;;;;;13.68;4.32;;;;;;;;;;6283386;28;20342;-70
2023/10/03 11:18:09;;;;;;;12.75;4.35;;;;;;;;;;6283625;28;20375;-70
2023/10/03 11:21:16;;;;;;;11.68;5.05;;;;;;;;;;6283144;28;20311;-72
2023/10/03 11:24:21;;;;;;;12.20;4.07;;;;;;;;;;6282933;28;20322;-70
2023/10/03 11:27:26;;;;;;;9.55;4.55;;;;;;;;;;6283759;28;20283;-72
2023/10/03 11:30:32;;;;;;;12.13;4.57;;;;;;;;;;6282742;28;20295;-70
2023/10/03 11:33:43;;;;;;;14.45;4.60;;;;;;;;;;6282327;28;20688;-69
2023/10/03 11:36:47;;;;;;;10.27;4.57;;;;;;;;;;6281855;28;20299;-70
2023/10/03 11:39:51;;;;;;;10.23;4.10;;;;;;;;;;6273952;28;20299;-70
2023/10/03 11:42:56;;;;;;;10.07;4.50;;;;;;;;;;6258019;28;20442;-69
2023/10/03 11:46:01;;;;;;;9.90;4.03;;;;;;;;;;6257767;28;20477;-70
2023/10/03 11:49:07;;;;;;;9.40;4.78;;;;;;;;;;6257524;28;20495;-71
2023/10/03 11:52:11;;;;;;;7.75;3.85;;;;;;;;;;6257879;28;20300;-70
2023/10/03 11:55:15;;;;;;;11.25;4.75;;;;;;;;;;6258121;28;20411;-70
2023/10/03 11:58:19;;;;;;;11.05;4.57;;;;;;;;;;6256224;28;20478;-71
2023/10/03 12:01:24;;;;;;;9.95;4.30;;;;;;;;;;6257864;28;20295;-70
2023/10/03 12:04:31;;;;;;;6.97;4.20;;;;;;;;;;6257236;28;20295;-70
2023/10/03 12:07:35;;;;;;;9.13;3.90;;;;;;;;;;6257489;28;20292;-70
2023/10/03 12:10:40;;;;;;;8.40;3.42;;;;;;;;;;6260687;28;20351;-70
2023/10/03 12:13:45;;;;;;;5.95;3.20;;;;;;;;;;6281592;28;20298;-70
2023/10/03 12:16:51;;;;;;;5.95;3.10;;;;;;;;;;6282116;28;20291;-70
2023/10/03 12:19:55;;;;;;;4.07;3.20;;;;;;;;;;6280960;28;20298;-70
2023/10/03 12:22:59;;;;;;;11.30;3.40;;;;;;;;;;6282265;28;20307;-71
2023/10/03 12:26:03;;;;;;;8.40;3.15;;;;;;;;;;6281216;28;20491;-72
2023/10/03 12:29:31;;;;;;;9.38;3.20;;;;;;;;;;6281470;28;20572;-72
2023/10/03 12:32:38;;;;;;;7.70;3.38;;;;;;;;;;6282116;28;20302;-70
2023/10/03 12:35:42;;;;;;;3.30;2.40;;;;;;;;;;6281188;28;20299;-71
2023/10/03 12:38:47;;;;;;;4.85;2.60;;;;;;;;;;6281880;28;20299;-70
2023/10/03 12:41:51;;;;;;;5.10;2.30;;;;;;;;;;6256729;28;20291;-72
2023/10/03 12:44:56;;;;;;;3.42;2.70;;;;;;;;;;6256612;28;20299;-71
2023/10/03 12:48:02;;;;;;;5.93;2.63;;;;;;;;;;6256743;28;20299;-71
2023/10/03 12:51:06;;;;;;;5.13;2.40;;;;;;;;;;6256341;28;20465;-71
2023/10/03 12:54:10;;;;;;;5.70;2.85;;;;;;;;;;6256367;28;20287;-70
2023/10/03 12:57:15;;;;;;;3.63;2.75;;;;;;;;;;6257034;28;20303;-72
2023/10/03 13:00:20;;;;;;;5.38;2.88;;;;;;;;;;6256409;28;20489;-71
2023/10/03 13:03:26;;;;;;;6.32;2.85;;;;;;;;;;6256226;28;20663;-73
2023/10/03 13:06:30;;;;;;;2.65;2.42;;;;;;;;;;6239015;28;20398;-70
2023/10/03 13:09:35;;;;;;;5.88;2.60;;;;;;;;;;6231755;28;20292;-70
2023/10/03 13:12:41;;;;;;;2.55;2.35;;;;;;;;;;6270657;28;20267;-71
2023/10/03 13:15:45;;;;;;;6.18;2.65;;;;;;;;;;6280805;28;20318;-71
2023/10/03 13:18:50;;;;;;;3.97;2.25;;;;;;;;;;6280932;28;20294;-71
2023/10/03 13:21:54;;;;;;;4.47;2.40;;;;;;;;;;6281072;28;20280;-71
2023/10/03 13:24:58;;;;;;;3.08;2.20;;;;;;;;;;6280437;28;20302;-72
2023/10/03 13:28:02;;;;;;;5.63;2.60;;;;;;;;;;6281169;28;20287;-71
2023/10/03 13:31:05;;;;;;;3.38;2.20;;;;;;;;;;6280316;28;20290;-71
2023/10/03 13:34:12;;;;;;;3.95;2.63;;;;;;;;;;6280507;28;20307;-69
2023/10/03 13:37:16;;;;;;;3.75;2.35;;;;;;;;;;6280664;28;20306;-71
2023/10/03 13:40:20;;;;;;;5.05;2.38;;;;;;;;;;6267647;28;20476;-70
2023/10/03 13:43:27;;;;;;;4.55;2.20;;;;;;;;;;6255818;28;20291;-70
2023/10/03 13:46:32;;;;;;;2.47;2.13;;;;;;;;;;6255766;28;20374;-70
2023/10/03 13:49:37;;;;;;;2.85;2.08;;;;;;;;;;6254054;28;20485;-70
2023/10/03 13:52:41;;;;;;;5.60;3.08;;;;;;;;;;6256048;28;20295;-72
2023/10/03 13:55:45;;;;;;;6.70;2.85;;;;;;;;;;6255210;28;20299;-72
2023/10/03 13:58:49;;;;;;;6.53;2.80;;;;;;;;;;6255233;28;20303;-71
2023/10/03 14:01:54;;;;;;;4.35;2.80;;;;;;;;;;6255596;28;20303;-72
2023/10/03 14:05:00;;;;;;;4.75;3.00;;;;;;;;;;6255200;28;20586;-70
2023/10/03 14:08:04;;;;;;;5.68;2.70;;;;;;;;;;6255618;28;20612;-69
2023/10/03 14:11:08;;;;;;;3.53;2.50;;;;;;;;;;6255161;28;20291;-70
2023/10/03 14:14:13;;;;;;;2.90;2.50;;;;;;;;;;6254972;28;20372;-72
2023/10/03 14:17:17;;;;;;;5.10;2.88;;;;;;;;;;6255784;28;20301;-71
2023/10/03 14:20:24;;;;;;;4.03;2.78;;;;;;;;;;6255223;28;20296;-72
2023/10/03 14:23:30;;;;;;;5.35;2.50;;;;;;;;;;6255307;28;20431;-71
2023/10/03 14:26:34;;;;;;;3.72;3.15;;;;;;;;;;6255427;28;20288;-70
2023/10/03 14:29:39;;;;;;;4.72;2.38;;;;;;;;;;6255310;28;20288;-71
2023/10/03 14:32:43;;;;;;;5.45;3.13;;;;;;;;;;6255815;28;20303;-71
2023/10/03 14:35:49;;;;;;;6.18;3.20;;;;;;;;;;6254930;28;20565;-72
2023/10/03 14:38:53;;;;;;;9.98;3.45;;;;;;;;;;6254863;28;20299;-70
2023/10/03 14:41:58;;;;;;;9.07;3.42;;;;;;;;;;6254983;28;20237;-72
2023/10/03 14:45:03;;;;;;;4.13;3.03;;;;;;;;;;6259797;28;20316;-71
2023/10/03 14:48:07;;;;;;;5.28;3.45;;;;;;;;;;6259645;28;20299;-70
2023/10/03 14:51:13;;;;;;;7.10;3.20;;;;;;;;;;6259621;28;20295;-70
2023/10/03 14:54:18;;;;;;;6.00;3.72;;;;;;;;;;6259409;28;20311;-70
2023/10/03 14:57:22;;;;;;;5.97;2.80;;;;;;;;;;6259613;28;20304;-72
2023/10/03 15:00:26;;;;;;;7.63;3.28;;;;;;;;;;6259092;28;20303;-70
2023/10/03 15:03:30;;;;;;;4.65;3.03;;;;;;;;;;6259299;28;20307;-70
2023/10/03 15:06:36;;;;;;;4.47;2.80;;;;;;;;;;6259570;28;20299;-69
2023/10/03 15:09:40;;;;;;;4.85;2.95;;;;;;;;;;6257996;28;20308;-70
2023/10/03 15:12:44;;;;;;;6.72;2.85;;;;;;;;;;6237499;28;20375;-72
2023/10/03 15:15:48;;;;;;;10.15;2.80;;;;;;;;;;6234426;28;20306;-71
2023/10/03 15:18:53;;;;;;;5.22;3.17;;;;;;;;;;6234490;28;20303;-70
2023/10/03 15:21:58;;;;;;;2.78;2.50;;;;;;;;;;6234452;28;20240;-70
2023/10/03 15:25:03;;;;;;;5.57;2.97;;;;;;;;;;6233226;28;20304;-71
2023/10/03 15:28:07;;;;;;;4.75;2.78;;;;;;;;;;6234037;28;20245;-70
2023/10/03 15:31:12;;;;;;;5.38;2.75;;;;;;;;;;6233837;28;20300;-69
2023/10/03 15:34:27;;;;;;;4.45;2.53;;;;;;;;;;6233566;28;20296;-69
2023/10/03 15:37:33;;;;;;;3.10;2.78;;;;;;;;;;6233546;28;20335;-70
2023/10/03 15:40:37;;;;;;;6.15;2.88;;;;;;;;;;6244785;28;20319;-69
2023/10/03 15:43:41;;;;;;;4.95;2.78;;;;;;;;;;6258351;28;20318;-69
2023/10/03 15:46:45;;;;;;;12.18;2.95;;;;;;;;;;6257100;28;20300;-69
2023/10/03 15:49:50;;;;;;;7.40;2.80;;;;;;;;;;6257536;28;20299;-69
2023/10/03 15:52:55;;;;;;;5.05;2.95;;;;;;;;;;6256712;28;20307;-72
2023/10/03 15:55:59;;;;;;;5.85;2.60;;;;;;;;;;6257421;28;20326;-69
2023/10/03 15:59:03;;;;;;;2.75;2.55;;;;;;;;;;6258380;28;20307;-68
2023/10/03 16:02:07;;;;;;;7.35;3.10;;;;;;;;;;6258537;28;20288;-71
2023/10/03 16:05:13;;;;;;;5.90;3.03;;;;;;;;;;6257453;28;20295;-70
2023/10/03 16:08:19;;;;;;;3.63;3.13;;;;;;;;;;6257321;28;20299;-69
2023/10/03 16:11:24;;;;;;;4.07;3.17;;;;;;;;;;6257343;28;20304;-71
2023/10/03 16:14:28;;;;;;;4.20;3.10;;;;;;;;;;6257348;28;20283;-71
2023/10/03 16:17:32;;;;;;;3.33;3.08;;;;;;;;;;6257332;28;20283;-70
2023/10/03 16:20:37;;;;;;;3.13;2.92;;;;;;;;;;6272163;28;20359;-70
2023/10/03 16:23:43;;;;;;;3.28;2.53;;;;;;;;;;6257381;28;20467;-70
2023/10/03 16:26:46;;;;;;;3.63;3.15;;;;;;;;;;6257420;28;20288;-71
2023/10/03 16:29:52;;;;;;;4.13;2.90;;;;;;;;;;6255888;28;20303;-70
2023/10/03 16:32:57;;;;;;;3.88;3.22;;;;;;;;;;6255788;28;20292;-69
2023/10/03 16:36:05;;;;;;;3.40;3.10;;;;;;;;;;6256919;28;20335;-70
2023/10/03 16:39:11;;;;;;;3.40;3.15;;;;;;;;;;6255413;28;20319;-69
2023/10/03 16:42:17;;;;;;;3.15;2.92;;;;;;;;;;6257612;28;20622;-68
2023/10/03 16:45:21;;;;;;;3.35;3.05;;;;;;;;;;6257131;28;20588;-70
2023/10/03 16:48:25;;;;;;;4.07;3.40;;;;;;;;;;6257410;28;20367;-71
2023/10/03 16:51:29;;;;;;;3.85;3.17;;;;;;;;;;6257093;28;20311;-69
2023/10/03 16:54:35;;;;;;;3.95;3.10;;;;;;;;;;6256331;28;20303;-71
2023/10/03 16:57:40;;;;;;;4.35;3.30;;;;;;;;;;6255873;28;20452;-71
2023/10/03 17:00:43;;;;;;;3.95;3.67;;;;;;;;;;6256453;28;20492;-70
2023/10/03 17:03:47;;;;;;;3.83;3.35;;;;;;;;;;6256057;28;20303;-72
2023/10/03 17:06:57;;;;;;;7.10;3.85;;;;;;;;;;6255603;28;20256;-69
2023/10/03 17:10:03;;;;;;;3.67;3.35;;;;;;;;;;6255868;28;20299;-71
2023/10/03 17:13:07;;;;;;;5.22;4.00;;;;;;;;;;6263062;28;20292;-71
2023/10/03 17:16:11;;;;;;;5.95;4.40;;;;;;;;;;6231305;28;20296;-71
2023/10/03 17:19:15;;;;;;;4.18;3.78;;;;;;;;;;6231427;28;20591;-70
2023/10/03 17:22:19;;;;;;;3.75;3.42;;;;;;;;;;6231499;28;20290;-69
2023/10/03 17:25:25;;;;;;;3.63;3.33;;;;;;;;;;6231594;28;20300;-68
2023/10/03 17:28:30;;;;;;;3.92;3.63;;;;;;;;;;6231049;28;20609;-72
2023/10/03 17:31:35;;;;;;;4.07;3.67;;;;;;;;;;6231707;28;20323;-71
2023/10/03 17:34:38;;;;;;;3.92;3.60;;;;;;;;;;6231307;28;20320;-70
2023/10/03 17:37:43;;;;;;;4.13;3.72;;;;;;;;;;6231091;28;20319;-69
2023/10/03 17:40:49;;;;;;;5.45;4.63;;;;;;;;;;6243067;28;20331;-70
2023/10/03 17:43:53;;;;;;;4.20;3.83;;;;;;;;;;6255146;28;20320;-70
2023/10/03 17:46:57;;;;;;;6.47;4.00;;;;;;;;;;6255365;28;20315;-71
2023/10/03 17:50:02;;;;;;;5.88;4.00;;;;;;;;;;6254975;28;20307;-72
2023/10/03 17:53:06;;;;;;;5.78;3.92;;;;;;;;;;6255478;28;20335;-67
2023/10/03 17:56:12;;;;;;;4.88;3.80;;;;;;;;;;6269860;28;20471;-72
2023/10/03 17:59:16;;;;;;;3.67;3.35;;;;;;;;;;6255586;28;20628;-71
2023/10/03 18:02:20;;;;;;;4.10;3.33;;;;;;;;;;6255651;28;20584;-70
2023/10/03 18:05:25;;;;;;;7.50;3.42;;;;;;;;;;6255183;28;20295;-70
2023/10/03 18:08:30;;;;;;;5.30;3.90;;;;;;;;;;6254753;28;20291;-70
2023/10/03 18:11:35;;;;;;;3.85;3.55;;;;;;;;;;6253644;28;20363;-70
2023/10/03 18:14:39;;;;;;;3.97;3.47;;;;;;;;;;6255087;28;20450;-70
2023/10/03 18:17:43;;;;;;;5.85;4.10;;;;;;;;;;6257046;28;20295;-72
2023/10/03 18:20:47;;;;;;;5.15;4.07;;;;;;;;;;6260136;28;20299;-70
2023/10/03 18:23:51;;;;;;;6.38;3.22;;;;;;;;;;6259580;28;20292;-71
2023/10/03 18:26:57;;;;;;;5.63;3.40;;;;;;;;;;6260621;28;20451;-70
2023/10/03 18:30:01;;;;;;;5.80;3.53;;;;;;;;;;6259506;28;20311;-69